sensor_id;sensor_type;location;lat;lon;timestamp;temperature;humidity
61412;DHT22;47278;49.732;7.690;2023-05-10T00:00:56;13.10;99.90
61412;DHT22;47278;49.732;7.690;2023-05-10T00:03:21;13.00;99.90
61412;DHT22;47278;49.732;7.690;2023-05-10T00:05:47;13.00;99.90
61412;DHT22;47278;49.732;7.690;2023-05-10T00:08:12;13.00;99.90
61412;DHT22;47278;49.732;7.690;2023-05-10T00:10:38;13.00;99.90
61412;DHT22;47278;49.732;7.690;2023-05-10T00:13:03;13.00;99.90
61412;DHT22;47278;49.732;7.690;2023-05-10T00:15:29;13.00;99.90
61412;DHT22;47278;49.732;7.690;2023-05-10T00:17:56;13.00;99.90
61412;DHT22;47278;49.732;7.690;2023-05-10T00:20:21;13.00;99.90
61412;DHT22;47278;49.732;7.690;2023-05-10T00:22:47;13.00;99.90
61412;DHT22;47278;49.732;7.690;2023-05-10T00:25:12;12.90;99.90
61412;DHT22;47278;49.732;7.690;2023-05-10T00:27:38;12.90;99.90
61412;DHT22;47278;49.732;7.690;2023-05-10T00:30:03;12.80;99.90
61412;DHT22;47278;49.732;7.690;2023-05-10T00:32:29;12.90;99.90
61412;DHT22;47278;49.732;7.690;2023-05-10T00:34:55;12.90;99.90
61412;DHT22;47278;49.732;7.690;2023-05-10T00:37:20;12.80;99.90
61412;DHT22;47278;49.732;7.690;2023-05-10T00:39:45;12.80;99.90
61412;DHT22;47278;49.732;7.690;2023-05-10T00:42:11;12.80;99.90
61412;DHT22;47278;49.732;7.690;2023-05-10T00:44:36;12.80;99.90
61412;DHT22;47278;49.732;7.690;2023-05-10T00:47:02;13.70;99.90
61412;DHT22;47278;49.732;7.690;2023-05-10T00:49:28;12.80;99.90
61412;DHT22;47278;49.732;7.690;2023-05-10T00:51:53;12.70;99.90
61412;DHT22;47278;49.732;7.690;2023-05-10T00:54:19;12.70;99.90
61412;DHT22;47278;49.732;7.690;2023-05-10T00:56:45;12.70;99.90
61412;DHT22;47278;49.732;7.690;2023-05-10T00:59:17;12.70;99.90
61412;DHT22;47278;49.732;7.690;2023-05-10T01:01:43;12.60;99.90
61412;DHT22;47278;49.732;7.690;2023-05-10T01:04:09;12.60;99.90
61412;DHT22;47278;49.732;7.690;2023-05-10T01:06:36;12.70;99.90
61412;DHT22;47278;49.732;7.690;2023-05-10T01:09:01;12.70;99.90
61412;DHT22;47278;49.732;7.690;2023-05-10T01:11:27;12.70;99.90
61412;DHT22;47278;49.732;7.690;2023-05-10T01:13:55;12.60;99.90
61412;DHT22;47278;49.732;7.690;2023-05-10T01:16:22;12.70;99.90
61412;DHT22;47278;49.732;7.690;2023-05-10T01:18:47;12.70;99.90
61412;DHT22;47278;49.732;7.690;2023-05-10T01:21:18;12.70;99.90
61412;DHT22;47278;49.732;7.690;2023-05-10T01:24:32;12.70;99.90
61412;DHT22;47278;49.732;7.690;2023-05-10T01:32:02;12.60;99.90
61412;DHT22;47278;49.732;7.690;2023-05-10T01:34:37;12.70;99.90
61412;DHT22;47278;49.732;7.690;2023-05-10T01:37:07;12.70;99.90
61412;DHT22;47278;49.732;7.690;2023-05-10T01:40:17;12.60;99.90
61412;DHT22;47278;49.732;7.690;2023-05-10T01:42:26;12.60;99.90
61412;DHT22;47278;49.732;7.690;2023-05-10T01:45:02;12.60;99.90
61412;DHT22;47278;49.732;7.690;2023-05-10T01:47:35;12.60;99.90
61412;DHT22;47278;49.732;7.690;2023-05-10T01:50:03;12.70;99.90
61412;DHT22;47278;49.732;7.690;2023-05-10T01:52:31;12.70;99.90
61412;DHT22;47278;49.732;7.690;2023-05-10T01:55:01;12.70;99.90
61412;DHT22;47278;49.732;7.690;2023-05-10T01:57:28;12.70;99.90
61412;DHT22;47278;49.732;7.690;2023-05-10T01:59:57;12.70;99.90
61412;DHT22;47278;49.732;7.690;2023-05-10T02:02:23;12.60;99.90
61412;DHT22;47278;49.732;7.690;2023-05-10T02:04:49;12.70;99.90
61412;DHT22;47278;49.732;7.690;2023-05-10T02:07:15;12.70;99.90
61412;DHT22;47278;49.732;7.690;2023-05-10T02:09:43;12.70;99.90
61412;DHT22;47278;49.732;7.690;2023-05-10T02:12:09;12.60;99.90
61412;DHT22;47278;49.732;7.690;2023-05-10T02:14:37;12.70;99.90
61412;DHT22;47278;49.732;7.690;2023-05-10T02:17:05;12.70;99.90
61412;DHT22;47278;49.732;7.690;2023-05-10T02:19:31;12.60;99.90
61412;DHT22;47278;49.732;7.690;2023-05-10T02:21:57;12.60;99.90
61412;DHT22;47278;49.732;7.690;2023-05-10T02:24:24;12.70;99.90
61412;DHT22;47278;49.732;7.690;2023-05-10T02:26:51;12.60;99.90
61412;DHT22;47278;49.732;7.690;2023-05-10T02:29:18;12.60;99.90
61412;DHT22;47278;49.732;7.690;2023-05-10T02:31:44;12.60;99.90
61412;DHT22;47278;49.732;7.690;2023-05-10T02:34:10;12.50;99.90
61412;DHT22;47278;49.732;7.690;2023-05-10T02:36:37;12.40;99.90
61412;DHT22;47278;49.732;7.690;2023-05-10T02:39:03;12.40;99.90
61412;DHT22;47278;49.732;7.690;2023-05-10T02:41:31;12.40;99.90
61412;DHT22;47278;49.732;7.690;2023-05-10T02:43:59;12.30;99.90
61412;DHT22;47278;49.732;7.690;2023-05-10T02:46:25;12.30;99.90
61412;DHT22;47278;49.732;7.690;2023-05-10T02:48:50;12.20;99.90
61412;DHT22;47278;49.732;7.690;2023-05-10T02:51:16;12.30;99.90
61412;DHT22;47278;49.732;7.690;2023-05-10T02:53:43;12.20;99.90
61412;DHT22;47278;49.732;7.690;2023-05-10T02:56:15;12.20;99.90
61412;DHT22;47278;49.732;7.690;2023-05-10T02:58:45;12.20;99.90
61412;DHT22;47278;49.732;7.690;2023-05-10T03:01:11;12.20;99.90
61412;DHT22;47278;49.732;7.690;2023-05-10T03:03:37;12.20;99.90
61412;DHT22;47278;49.732;7.690;2023-05-10T03:06:02;12.20;99.90
61412;DHT22;47278;49.732;7.690;2023-05-10T03:08:28;12.30;99.90
61412;DHT22;47278;49.732;7.690;2023-05-10T03:11:05;12.20;99.90
61412;DHT22;47278;49.732;7.690;2023-05-10T03:16:21;12.10;99.90
61412;DHT22;47278;49.732;7.690;2023-05-10T03:18:50;12.10;99.90
61412;DHT22;47278;49.732;7.690;2023-05-10T03:21:19;12.00;99.90
61412;DHT22;47278;49.732;7.690;2023-05-10T03:23:50;12.00;99.90
61412;DHT22;47278;49.732;7.690;2023-05-10T03:26:34;12.00;99.90
61412;DHT22;47278;49.732;7.690;2023-05-10T03:29:00;12.00;99.90
61412;DHT22;47278;49.732;7.690;2023-05-10T03:31:26;12.00;99.90
61412;DHT22;47278;49.732;7.690;2023-05-10T03:33:52;12.00;99.90
61412;DHT22;47278;49.732;7.690;2023-05-10T03:36:18;12.00;99.90
61412;DHT22;47278;49.732;7.690;2023-05-10T03:38:44;12.00;99.90
61412;DHT22;47278;49.732;7.690;2023-05-10T03:41:09;12.00;99.90
61412;DHT22;47278;49.732;7.690;2023-05-10T03:43:35;12.00;99.90
61412;DHT22;47278;49.732;7.690;2023-05-10T03:46:02;12.00;99.90
61412;DHT22;47278;49.732;7.690;2023-05-10T03:48:27;12.00;99.90
61412;DHT22;47278;49.732;7.690;2023-05-10T03:50:53;12.00;99.90
61412;DHT22;47278;49.732;7.690;2023-05-10T03:53:18;12.00;99.90
61412;DHT22;47278;49.732;7.690;2023-05-10T03:55:44;12.00;99.90
61412;DHT22;47278;49.732;7.690;2023-05-10T03:58:12;12.10;99.90
61412;DHT22;47278;49.732;7.690;2023-05-10T04:00:38;13.20;99.90
61412;DHT22;47278;49.732;7.690;2023-05-10T04:03:12;14.60;99.90
61412;DHT22;47278;49.732;7.690;2023-05-10T04:05:37;12.00;99.90
61412;DHT22;47278;49.732;7.690;2023-05-10T04:08:03;12.00;99.90
61412;DHT22;47278;49.732;7.690;2023-05-10T04:10:29;11.90;99.90
61412;DHT22;47278;49.732;7.690;2023-05-10T04:12:54;11.90;99.90
61412;DHT22;47278;49.732;7.690;2023-05-10T04:15:20;11.90;99.90
61412;DHT22;47278;49.732;7.690;2023-05-10T04:17:46;11.90;99.90
61412;DHT22;47278;49.732;7.690;2023-05-10T04:20:11;11.80;99.90
61412;DHT22;47278;49.732;7.690;2023-05-10T04:22:37;11.90;99.90
61412;DHT22;47278;49.732;7.690;2023-05-10T04:25:03;11.80;99.90
61412;DHT22;47278;49.732;7.690;2023-05-10T04:27:28;11.70;99.90
61412;DHT22;47278;49.732;7.690;2023-05-10T04:29:54;11.70;99.90
61412;DHT22;47278;49.732;7.690;2023-05-10T04:32:19;11.70;99.90
61412;DHT22;47278;49.732;7.690;2023-05-10T04:34:45;11.70;99.90
61412;DHT22;47278;49.732;7.690;2023-05-10T04:37:11;11.70;99.90
61412;DHT22;47278;49.732;7.690;2023-05-10T04:39:36;11.70;99.90
61412;DHT22;47278;49.732;7.690;2023-05-10T04:42:05;11.70;99.90
61412;DHT22;47278;49.732;7.690;2023-05-10T04:44:34;11.80;99.90
61412;DHT22;47278;49.732;7.690;2023-05-10T04:46:59;11.80;99.90
61412;DHT22;47278;49.732;7.690;2023-05-10T04:49:25;11.80;99.90
61412;DHT22;47278;49.732;7.690;2023-05-10T04:51:50;11.90;99.90
61412;DHT22;47278;49.732;7.690;2023-05-10T04:54:16;12.00;99.90
61412;DHT22;47278;49.732;7.690;2023-05-10T04:56:41;12.10;99.90
61412;DHT22;47278;49.732;7.690;2023-05-10T04:59:07;12.20;99.90
61412;DHT22;47278;49.732;7.690;2023-05-10T05:01:32;12.30;99.90
61412;DHT22;47278;49.732;7.690;2023-05-10T05:03:58;12.30;99.90
61412;DHT22;47278;49.732;7.690;2023-05-10T05:06:24;12.40;99.90
61412;DHT22;47278;49.732;7.690;2023-05-10T05:08:50;12.40;99.90
61412;DHT22;47278;49.732;7.690;2023-05-10T05:11:16;12.30;99.90
61412;DHT22;47278;49.732;7.690;2023-05-10T05:13:41;12.40;99.90
61412;DHT22;47278;49.732;7.690;2023-05-10T05:16:07;12.30;99.90
61412;DHT22;47278;49.732;7.690;2023-05-10T05:18:32;12.40;99.90
61412;DHT22;47278;49.732;7.690;2023-05-10T05:20:58;12.40;99.90
61412;DHT22;47278;49.732;7.690;2023-05-10T05:23:23;12.40;99.90
61412;DHT22;47278;49.732;7.690;2023-05-10T05:25:53;12.50;99.90
61412;DHT22;47278;49.732;7.690;2023-05-10T05:28:19;12.60;99.90
61412;DHT22;47278;49.732;7.690;2023-05-10T05:30:44;12.70;99.90
61412;DHT22;47278;49.732;7.690;2023-05-10T05:33:10;12.70;99.90
61412;DHT22;47278;49.732;7.690;2023-05-10T05:35:36;12.80;99.90
61412;DHT22;47278;49.732;7.690;2023-05-10T05:38:01;12.80;99.90
61412;DHT22;47278;49.732;7.690;2023-05-10T05:40:27;11.00;99.90
61412;DHT22;47278;49.732;7.690;2023-05-10T05:42:52;12.80;99.90
61412;DHT22;47278;49.732;7.690;2023-05-10T05:45:18;13.00;99.90
61412;DHT22;47278;49.732;7.690;2023-05-10T05:47:43;13.10;99.90
61412;DHT22;47278;49.732;7.690;2023-05-10T05:50:09;13.20;99.90
61412;DHT22;47278;49.732;7.690;2023-05-10T05:52:34;13.30;99.90
61412;DHT22;47278;49.732;7.690;2023-05-10T05:55:01;13.40;99.90
61412;DHT22;47278;49.732;7.690;2023-05-10T05:57:26;13.50;99.90
61412;DHT22;47278;49.732;7.690;2023-05-10T05:59:52;13.50;99.90
61412;DHT22;47278;49.732;7.690;2023-05-10T06:02:17;13.60;99.90
61412;DHT22;47278;49.732;7.690;2023-05-10T06:04:43;13.60;99.90
61412;DHT22;47278;49.732;7.690;2023-05-10T06:07:08;13.70;99.90
61412;DHT22;47278;49.732;7.690;2023-05-10T06:09:34;13.60;99.90
61412;DHT22;47278;49.732;7.690;2023-05-10T06:11:59;13.70;99.90
61412;DHT22;47278;49.732;7.690;2023-05-10T06:14:25;13.70;99.90
61412;DHT22;47278;49.732;7.690;2023-05-10T06:16:50;13.70;99.90
61412;DHT22;47278;49.732;7.690;2023-05-10T06:19:16;13.80;99.90
61412;DHT22;47278;49.732;7.690;2023-05-10T06:21:41;14.00;99.90
61412;DHT22;47278;49.732;7.690;2023-05-10T06:24:07;14.00;99.90
61412;DHT22;47278;49.732;7.690;2023-05-10T06:26:33;14.10;99.90
61412;DHT22;47278;49.732;7.690;2023-05-10T06:28:58;14.00;99.90
61412;DHT22;47278;49.732;7.690;2023-05-10T06:31:24;14.10;99.90
61412;DHT22;47278;49.732;7.690;2023-05-10T06:33:49;14.20;99.90
61412;DHT22;47278;49.732;7.690;2023-05-10T06:36:15;14.30;99.90
61412;DHT22;47278;49.732;7.690;2023-05-10T06:38:40;14.50;99.90
61412;DHT22;47278;49.732;7.690;2023-05-10T06:41:06;14.60;99.90
61412;DHT22;47278;49.732;7.690;2023-05-10T06:43:31;14.50;99.90
61412;DHT22;47278;49.732;7.690;2023-05-10T06:45:57;14.40;99.90
61412;DHT22;47278;49.732;7.690;2023-05-10T06:48:23;14.50;99.90
61412;DHT22;47278;49.732;7.690;2023-05-10T06:50:48;14.50;99.90
61412;DHT22;47278;49.732;7.690;2023-05-10T06:53:14;14.60;99.90
61412;DHT22;47278;49.732;7.690;2023-05-10T06:55:39;14.80;99.90
61412;DHT22;47278;49.732;7.690;2023-05-10T06:58:05;14.80;99.90
61412;DHT22;47278;49.732;7.690;2023-05-10T07:00:31;14.80;99.90
61412;DHT22;47278;49.732;7.690;2023-05-10T07:02:56;15.00;99.90
61412;DHT22;47278;49.732;7.690;2023-05-10T07:05:22;15.20;99.90
61412;DHT22;47278;49.732;7.690;2023-05-10T07:07:47;15.40;99.90
61412;DHT22;47278;49.732;7.690;2023-05-10T07:10:13;15.40;99.90
61412;DHT22;47278;49.732;7.690;2023-05-10T07:12:39;15.40;99.90
61412;DHT22;47278;49.732;7.690;2023-05-10T07:15:05;15.40;99.90
61412;DHT22;47278;49.732;7.690;2023-05-10T07:17:31;15.40;99.90
61412;DHT22;47278;49.732;7.690;2023-05-10T07:19:56;15.40;99.90
61412;DHT22;47278;49.732;7.690;2023-05-10T07:22:22;15.30;99.90
61412;DHT22;47278;49.732;7.690;2023-05-10T07:24:47;15.30;99.90
61412;DHT22;47278;49.732;7.690;2023-05-10T07:27:13;15.40;99.90
61412;DHT22;47278;49.732;7.690;2023-05-10T07:29:38;15.30;99.90
61412;DHT22;47278;49.732;7.690;2023-05-10T07:32:04;15.20;99.90
61412;DHT22;47278;49.732;7.690;2023-05-10T07:34:30;15.30;99.90
61412;DHT22;47278;49.732;7.690;2023-05-10T07:36:59;15.50;99.90
61412;DHT22;47278;49.732;7.690;2023-05-10T07:39:26;15.60;99.90
61412;DHT22;47278;49.732;7.690;2023-05-10T07:41:51;15.60;99.90
61412;DHT22;47278;49.732;7.690;2023-05-10T07:44:17;15.30;99.90
61412;DHT22;47278;49.732;7.690;2023-05-10T07:46:44;15.30;99.90
61412;DHT22;47278;49.732;7.690;2023-05-10T07:49:10;15.30;99.90
61412;DHT22;47278;49.732;7.690;2023-05-10T07:51:35;15.20;99.90
61412;DHT22;47278;49.732;7.690;2023-05-10T07:54:01;15.20;99.90
61412;DHT22;47278;49.732;7.690;2023-05-10T07:56:31;16.00;99.90
61412;DHT22;47278;49.732;7.690;2023-05-10T07:59:00;15.20;99.90
61412;DHT22;47278;49.732;7.690;2023-05-10T08:01:26;15.20;99.90
61412;DHT22;47278;49.732;7.690;2023-05-10T08:03:52;15.30;99.90
61412;DHT22;47278;49.732;7.690;2023-05-10T08:06:18;15.30;99.90
61412;DHT22;47278;49.732;7.690;2023-05-10T08:08:45;15.30;99.90
61412;DHT22;47278;49.732;7.690;2023-05-10T08:11:17;15.20;99.90
61412;DHT22;47278;49.732;7.690;2023-05-10T08:13:43;15.20;99.90
61412;DHT22;47278;49.732;7.690;2023-05-10T08:16:09;15.30;99.90
61412;DHT22;47278;49.732;7.690;2023-05-10T08:18:34;15.30;99.90
61412;DHT22;47278;49.732;7.690;2023-05-10T08:21:00;15.50;99.90
61412;DHT22;47278;49.732;7.690;2023-05-10T08:23:26;15.50;99.90
61412;DHT22;47278;49.732;7.690;2023-05-10T08:25:51;15.50;99.90
61412;DHT22;47278;49.732;7.690;2023-05-10T08:28:17;15.30;99.90
61412;DHT22;47278;49.732;7.690;2023-05-10T08:30:42;15.40;99.90
61412;DHT22;47278;49.732;7.690;2023-05-10T08:33:08;15.40;99.90
61412;DHT22;47278;49.732;7.690;2023-05-10T08:35:33;15.60;99.90
61412;DHT22;47278;49.732;7.690;2023-05-10T08:38:00;15.70;99.90
61412;DHT22;47278;49.732;7.690;2023-05-10T08:40:26;15.90;99.90
61412;DHT22;47278;49.732;7.690;2023-05-10T08:42:54;15.90;99.90
61412;DHT22;47278;49.732;7.690;2023-05-10T08:45:21;15.90;99.90
61412;DHT22;47278;49.732;7.690;2023-05-10T08:47:48;15.20;99.90
61412;DHT22;47278;49.732;7.690;2023-05-10T08:50:14;15.80;99.90
61412;DHT22;47278;49.732;7.690;2023-05-10T08:52:41;16.10;99.90
61412;DHT22;47278;49.732;7.690;2023-05-10T08:55:07;16.10;99.90
61412;DHT22;47278;49.732;7.690;2023-05-10T08:57:32;16.20;99.90
61412;DHT22;47278;49.732;7.690;2023-05-10T08:59:58;16.10;99.90
61412;DHT22;47278;49.732;7.690;2023-05-10T09:02:25;16.00;99.90
61412;DHT22;47278;49.732;7.690;2023-05-10T09:04:52;17.80;99.90
61412;DHT22;47278;49.732;7.690;2023-05-10T09:07:18;16.10;99.90
61412;DHT22;47278;49.732;7.690;2023-05-10T09:09:44;16.10;99.90
61412;DHT22;47278;49.732;7.690;2023-05-10T09:12:11;15.70;99.90
61412;DHT22;47278;49.732;7.690;2023-05-10T09:14:37;15.50;99.90
61412;DHT22;47278;49.732;7.690;2023-05-10T09:17:03;15.40;99.90
61412;DHT22;47278;49.732;7.690;2023-05-10T09:19:29;15.30;99.90
61412;DHT22;47278;49.732;7.690;2023-05-10T09:21:55;15.30;99.90
61412;DHT22;47278;49.732;7.690;2023-05-10T09:24:25;15.50;99.90
61412;DHT22;47278;49.732;7.690;2023-05-10T09:26:50;15.40;99.90
61412;DHT22;47278;49.732;7.690;2023-05-10T09:29:16;15.40;99.90
61412;DHT22;47278;49.732;7.690;2023-05-10T09:31:51;15.30;99.90
61412;DHT22;47278;49.732;7.690;2023-05-10T09:34:18;15.40;99.90
61412;DHT22;47278;49.732;7.690;2023-05-10T09:36:51;15.80;99.90
61412;DHT22;47278;49.732;7.690;2023-05-10T09:39:17;15.90;99.90
61412;DHT22;47278;49.732;7.690;2023-05-10T09:41:43;14.80;99.90
61412;DHT22;47278;49.732;7.690;2023-05-10T09:44:09;15.90;99.90
61412;DHT22;47278;49.732;7.690;2023-05-10T09:46:35;16.20;99.90
61412;DHT22;47278;49.732;7.690;2023-05-10T09:49:01;16.80;99.90
61412;DHT22;47278;49.732;7.690;2023-05-10T09:51:26;17.10;99.90
61412;DHT22;47278;49.732;7.690;2023-05-10T09:54:11;17.40;99.90
61412;DHT22;47278;49.732;7.690;2023-05-10T09:56:37;16.90;99.90
61412;DHT22;47278;49.732;7.690;2023-05-10T09:59:05;16.70;99.90
61412;DHT22;47278;49.732;7.690;2023-05-10T10:01:31;16.60;99.90
61412;DHT22;47278;49.732;7.690;2023-05-10T10:03:56;16.80;99.90
61412;DHT22;47278;49.732;7.690;2023-05-10T10:06:23;16.90;99.90
61412;DHT22;47278;49.732;7.690;2023-05-10T10:08:51;17.00;99.90
61412;DHT22;47278;49.732;7.690;2023-05-10T10:11:16;16.80;99.90
61412;DHT22;47278;49.732;7.690;2023-05-10T10:13:42;16.90;99.90
61412;DHT22;47278;49.732;7.690;2023-05-10T10:16:08;16.80;99.90
61412;DHT22;47278;49.732;7.690;2023-05-10T10:18:34;16.80;99.90
61412;DHT22;47278;49.732;7.690;2023-05-10T10:21:06;16.50;99.90
61412;DHT22;47278;49.732;7.690;2023-05-10T10:23:34;16.50;99.90
61412;DHT22;47278;49.732;7.690;2023-05-10T10:26:00;16.20;99.90
61412;DHT22;47278;49.732;7.690;2023-05-10T10:30:54;16.40;99.90
61412;DHT22;47278;49.732;7.690;2023-05-10T10:36:05;16.30;99.90
61412;DHT22;47278;49.732;7.690;2023-05-10T10:38:37;16.40;99.90
61412;DHT22;47278;49.732;7.690;2023-05-10T10:47:21;17.00;99.90
61412;DHT22;47278;49.732;7.690;2023-05-10T10:49:31;16.80;99.90
61412;DHT22;47278;49.732;7.690;2023-05-10T10:54:38;16.60;99.90
61412;DHT22;47278;49.732;7.690;2023-05-10T10:57:10;16.50;99.90
61412;DHT22;47278;49.732;7.690;2023-05-10T10:59:40;16.50;99.90
61412;DHT22;47278;49.732;7.690;2023-05-10T11:02:06;16.50;99.90
61412;DHT22;47278;49.732;7.690;2023-05-10T11:04:40;16.60;99.90
61412;DHT22;47278;49.732;7.690;2023-05-10T11:07:15;16.60;99.90
61412;DHT22;47278;49.732;7.690;2023-05-10T11:09:41;16.60;99.90
61412;DHT22;47278;49.732;7.690;2023-05-10T11:12:10;16.40;99.90
61412;DHT22;47278;49.732;7.690;2023-05-10T11:14:35;16.40;99.90
61412;DHT22;47278;49.732;7.690;2023-05-10T11:17:01;16.40;99.90
61412;DHT22;47278;49.732;7.690;2023-05-10T11:19:29;16.50;99.90
61412;DHT22;47278;49.732;7.690;2023-05-10T11:24:29;16.40;99.90
61412;DHT22;47278;49.732;7.690;2023-05-10T11:26:55;16.40;99.90
61412;DHT22;47278;49.732;7.690;2023-05-10T11:29:21;16.30;99.90
61412;DHT22;47278;49.732;7.690;2023-05-10T11:31:47;16.20;99.90
61412;DHT22;47278;49.732;7.690;2023-05-10T11:34:26;16.40;99.90
61412;DHT22;47278;49.732;7.690;2023-05-10T11:36:53;16.40;99.90
61412;DHT22;47278;49.732;7.690;2023-05-10T11:39:19;16.50;99.90
61412;DHT22;47278;49.732;7.690;2023-05-10T11:41:46;16.60;99.90
61412;DHT22;47278;49.732;7.690;2023-05-10T11:44:12;16.80;99.90
61412;DHT22;47278;49.732;7.690;2023-05-10T11:46:37;17.10;99.90
61412;DHT22;47278;49.732;7.690;2023-05-10T11:49:03;17.70;99.90
61412;DHT22;47278;49.732;7.690;2023-05-10T11:51:35;17.90;99.90
61412;DHT22;47278;49.732;7.690;2023-05-10T11:54:02;18.00;99.90
61412;DHT22;47278;49.732;7.690;2023-05-10T11:56:31;17.90;99.90
61412;DHT22;47278;49.732;7.690;2023-05-10T11:58:57;17.40;99.90
61412;DHT22;47278;49.732;7.690;2023-05-10T12:01:23;17.50;99.90
61412;DHT22;47278;49.732;7.690;2023-05-10T12:03:50;17.50;99.90
61412;DHT22;47278;49.732;7.690;2023-05-10T12:06:15;17.50;99.90
61412;DHT22;47278;49.732;7.690;2023-05-10T12:08:44;17.60;99.90
61412;DHT22;47278;49.732;7.690;2023-05-10T12:11:09;17.50;99.90
61412;DHT22;47278;49.732;7.690;2023-05-10T12:13:39;17.50;99.90
61412;DHT22;47278;49.732;7.690;2023-05-10T12:16:18;17.20;99.90
61412;DHT22;47278;49.732;7.690;2023-05-10T12:18:44;17.20;99.90
61412;DHT22;47278;49.732;7.690;2023-05-10T12:21:10;17.10;99.90
61412;DHT22;47278;49.732;7.690;2023-05-10T12:23:37;17.00;99.90
61412;DHT22;47278;49.732;7.690;2023-05-10T12:26:03;17.10;99.90
61412;DHT22;47278;49.732;7.690;2023-05-10T12:28:32;15.70;99.90
61412;DHT22;47278;49.732;7.690;2023-05-10T12:30:59;17.10;99.90
61412;DHT22;47278;49.732;7.690;2023-05-10T12:33:24;17.00;99.90
61412;DHT22;47278;49.732;7.690;2023-05-10T12:35:51;17.40;99.90
61412;DHT22;47278;49.732;7.690;2023-05-10T12:38:24;17.20;99.90
61412;DHT22;47278;49.732;7.690;2023-05-10T12:40:50;17.40;99.90
61412;DHT22;47278;49.732;7.690;2023-05-10T12:43:15;17.30;99.90
61412;DHT22;47278;49.732;7.690;2023-05-10T12:45:41;18.00;99.90
61412;DHT22;47278;49.732;7.690;2023-05-10T12:48:06;19.30;99.90
61412;DHT22;47278;49.732;7.690;2023-05-10T12:50:32;19.60;99.90
61412;DHT22;47278;49.732;7.690;2023-05-10T12:52:57;19.70;99.90
61412;DHT22;47278;49.732;7.690;2023-05-10T12:55:23;18.80;99.90
61412;DHT22;47278;49.732;7.690;2023-05-10T12:57:48;19.20;99.90
61412;DHT22;47278;49.732;7.690;2023-05-10T13:00:14;19.50;99.90
61412;DHT22;47278;49.732;7.690;2023-05-10T13:02:40;19.80;99.90
61412;DHT22;47278;49.732;7.690;2023-05-10T13:05:05;18.90;99.90
61412;DHT22;47278;49.732;7.690;2023-05-10T13:07:31;19.30;99.90
61412;DHT22;47278;49.732;7.690;2023-05-10T13:09:57;18.70;99.90
61412;DHT22;47278;49.732;7.690;2023-05-10T13:12:22;18.90;99.90
61412;DHT22;47278;49.732;7.690;2023-05-10T13:14:48;19.30;99.90
61412;DHT22;47278;49.732;7.690;2023-05-10T13:17:13;20.30;99.90
61412;DHT22;47278;49.732;7.690;2023-05-10T13:19:39;19.60;99.90
61412;DHT22;47278;49.732;7.690;2023-05-10T13:22:04;18.90;99.90
61412;DHT22;47278;49.732;7.690;2023-05-10T13:24:30;19.10;99.90
61412;DHT22;47278;49.732;7.690;2023-05-10T13:26:56;19.60;99.90
61412;DHT22;47278;49.732;7.690;2023-05-10T13:29:21;19.30;99.90
61412;DHT22;47278;49.732;7.690;2023-05-10T13:31:47;19.40;99.90
61412;DHT22;47278;49.732;7.690;2023-05-10T13:34:13;19.50;99.90
61412;DHT22;47278;49.732;7.690;2023-05-10T13:36:38;19.50;99.90
61412;DHT22;47278;49.732;7.690;2023-05-10T13:39:04;18.40;99.90
61412;DHT22;47278;49.732;7.690;2023-05-10T13:41:30;18.10;99.90
61412;DHT22;47278;49.732;7.690;2023-05-10T13:43:56;17.90;99.90
61412;DHT22;47278;49.732;7.690;2023-05-10T13:46:21;17.90;99.90
61412;DHT22;47278;49.732;7.690;2023-05-10T13:48:47;17.80;99.90
61412;DHT22;47278;49.732;7.690;2023-05-10T13:51:12;17.80;99.90
61412;DHT22;47278;49.732;7.690;2023-05-10T13:53:38;18.10;99.90
61412;DHT22;47278;49.732;7.690;2023-05-10T13:56:04;18.60;99.90
61412;DHT22;47278;49.732;7.690;2023-05-10T13:58:29;18.50;99.90
61412;DHT22;47278;49.732;7.690;2023-05-10T14:00:55;18.60;99.90
61412;DHT22;47278;49.732;7.690;2023-05-10T14:03:21;18.40;99.90
61412;DHT22;47278;49.732;7.690;2023-05-10T14:05:46;18.70;99.90
61412;DHT22;47278;49.732;7.690;2023-05-10T14:08:12;19.00;99.90
61412;DHT22;47278;49.732;7.690;2023-05-10T14:10:38;19.20;99.90
61412;DHT22;47278;49.732;7.690;2023-05-10T14:13:04;19.00;99.90
61412;DHT22;47278;49.732;7.690;2023-05-10T14:15:30;19.00;99.90
61412;DHT22;47278;49.732;7.690;2023-05-10T14:17:55;18.40;99.90
61412;DHT22;47278;49.732;7.690;2023-05-10T14:20:21;19.20;99.90
61412;DHT22;47278;49.732;7.690;2023-05-10T14:22:47;19.10;99.90
61412;DHT22;47278;49.732;7.690;2023-05-10T14:25:12;18.80;99.90
61412;DHT22;47278;49.732;7.690;2023-05-10T14:27:38;18.70;99.90
61412;DHT22;47278;49.732;7.690;2023-05-10T14:30:04;19.00;99.90
61412;DHT22;47278;49.732;7.690;2023-05-10T14:32:30;18.70;99.90
61412;DHT22;47278;49.732;7.690;2023-05-10T14:34:57;18.60;99.90
61412;DHT22;47278;49.732;7.690;2023-05-10T14:37:22;18.40;99.90
61412;DHT22;47278;49.732;7.690;2023-05-10T14:39:48;18.00;99.90
61412;DHT22;47278;49.732;7.690;2023-05-10T14:42:13;18.00;99.90
61412;DHT22;47278;49.732;7.690;2023-05-10T14:44:39;17.80;99.90
61412;DHT22;47278;49.732;7.690;2023-05-10T14:47:05;18.20;99.90
61412;DHT22;47278;49.732;7.690;2023-05-10T14:49:30;18.20;99.90
61412;DHT22;47278;49.732;7.690;2023-05-10T14:51:56;18.60;99.90
61412;DHT22;47278;49.732;7.690;2023-05-10T14:54:21;18.90;99.90
61412;DHT22;47278;49.732;7.690;2023-05-10T14:56:47;18.60;99.90
61412;DHT22;47278;49.732;7.690;2023-05-10T14:59:15;19.20;99.90
61412;DHT22;47278;49.732;7.690;2023-05-10T15:01:40;20.60;99.90
61412;DHT22;47278;49.732;7.690;2023-05-10T15:04:07;20.50;99.90
61412;DHT22;47278;49.732;7.690;2023-05-10T15:06:34;20.80;99.90
61412;DHT22;47278;49.732;7.690;2023-05-10T15:09:00;20.50;99.90
61412;DHT22;47278;49.732;7.690;2023-05-10T15:11:25;19.90;99.90
61412;DHT22;47278;49.732;7.690;2023-05-10T15:13:51;20.00;99.90
61412;DHT22;47278;49.732;7.690;2023-05-10T15:16:17;19.20;99.90
61412;DHT22;47278;49.732;7.690;2023-05-10T15:18:42;20.50;99.90
61412;DHT22;47278;49.732;7.690;2023-05-10T15:21:08;22.80;99.90
61412;DHT22;47278;49.732;7.690;2023-05-10T15:23:34;21.70;99.90
61412;DHT22;47278;49.732;7.690;2023-05-10T15:26:00;21.70;99.90
61412;DHT22;47278;49.732;7.690;2023-05-10T15:28:25;21.60;99.90
61412;DHT22;47278;49.732;7.690;2023-05-10T15:30:51;20.80;99.90
61412;DHT22;47278;49.732;7.690;2023-05-10T15:33:16;22.10;99.90
61412;DHT22;47278;49.732;7.690;2023-05-10T15:35:42;23.20;99.90
61412;DHT22;47278;49.732;7.690;2023-05-10T15:38:08;22.90;99.90
61412;DHT22;47278;49.732;7.690;2023-05-10T15:40:35;24.20;99.90
61412;DHT22;47278;49.732;7.690;2023-05-10T15:43:01;25.10;99.90
61412;DHT22;47278;49.732;7.690;2023-05-10T15:45:26;24.10;99.90
61412;DHT22;47278;49.732;7.690;2023-05-10T15:47:52;24.10;99.90
61412;DHT22;47278;49.732;7.690;2023-05-10T15:50:18;23.80;99.90